Flight Track Log - Related Links

Times and Time Zones

All times are in EDT time to prevent confusion due to time zone crossing. See the N531QS flight status page for this flight to view local times or setup timezone preferences in your user account.

Time Position Orientation Groundspeed Altitude Reporting Facility
EDT Latitude Longitude Course Direction KTS MPH feet Rate Location/Type
Mon 10:13:00 AM 44.0000 -30.0000 273° West 454 522 43,000  Level ETMS Enhanced Traffic Management System
Mon 10:20:00 AM 44.0580 -31.5767 272° West 454 522 43,000  Level FlightAware Transoceanic
Mon 10:21:00 AM 44.0631 -31.7521 272° West 454 522 43,000  Level FlightAware Transoceanic
Mon 10:22:00 AM 44.0680 -31.9275 272° West 454 522 43,000  Level FlightAware Transoceanic
Mon 10:23:00 AM 44.0725 -32.1029 272° West 454 522 43,000  Level FlightAware Transoceanic
Mon 10:24:00 AM 44.0769 -32.2784 272° West 454 522 43,000  Level FlightAware Transoceanic
Mon 10:25:00 AM 44.0809 -32.4538 272° West 454 522 43,000  Level FlightAware Transoceanic
Mon 10:26:00 AM 44.0846 -32.6293 272° West 454 522 43,000  Level FlightAware Transoceanic
Mon 10:27:00 AM 44.0881 -32.8048 272° West 454 522 43,000  Level FlightAware Transoceanic
Mon 10:28:00 AM 44.0914 -32.9804 271° West 454 522 43,000  Level FlightAware Transoceanic
Mon 10:29:00 AM 44.0943 -33.1559 271° West 454 522 43,000  Level FlightAware Transoceanic
Mon 10:30:00 AM 44.0970 -33.3315 271° West 454 522 43,000  Level FlightAware Transoceanic
Mon 10:31:00 AM 44.0994 -33.5071 271° West 454 522 43,000  Level FlightAware Transoceanic
Mon 10:32:00 AM 44.1016 -33.6827 271° West 454 522 43,000  Level FlightAware Transoceanic
Mon 10:33:00 AM 44.1035 -33.8583 271° West 454 522 43,000  Level FlightAware Transoceanic
Mon 10:34:00 AM 44.1051 -34.0339 271° West 454 522 43,000  Level FlightAware Transoceanic
Mon 10:35:00 AM 44.1064 -34.2096 271° West 454 522 43,000  Level FlightAware Transoceanic
Mon 10:36:00 AM 44.1075 -34.3852 270° West 454 522 43,000  Level FlightAware Transoceanic
Mon 10:37:00 AM 44.1083 -34.5609 270° West 454 522 43,000  Level FlightAware Transoceanic
Mon 10:38:00 AM 44.1089 -34.7365 270° West 454 522 43,000  Level FlightAware Transoceanic
Mon 10:39:00 AM 44.1091 -34.9122 270° West 454 522 43,000  Level FlightAware Transoceanic
Mon 10:40:00 AM 44.1091 -35.0878 270° West 454 522 43,000  Level FlightAware Transoceanic
Mon 10:41:00 AM 44.1089 -35.2635 270° West 454 522 43,000  Level FlightAware Transoceanic
Mon 10:42:00 AM 44.1083 -35.4391 270° West 454 522 43,000  Level FlightAware Transoceanic
Mon 10:43:00 AM 44.1075 -35.6148 270° West 454 522 43,000  Level FlightAware Transoceanic
Mon 10:44:00 AM 44.1064 -35.7904 269° West 454 522 43,000  Level FlightAware Transoceanic
Mon 10:45:00 AM 44.1051 -35.9661 269° West 454 522 43,000  Level FlightAware Transoceanic
Mon 10:46:00 AM 44.1035 -36.1417 269° West 454 522 43,000  Level FlightAware Transoceanic
Mon 10:47:00 AM 44.1016 -36.3173 269° West 454 522 43,000  Level FlightAware Transoceanic
Mon 10:48:00 AM 44.0994 -36.4929 269° West 454 522 43,000  Level FlightAware Transoceanic
Mon 10:49:00 AM 44.0970 -36.6685 269° West 454 522 43,000  Level FlightAware Transoceanic
Mon 10:50:00 AM 44.0943 -36.8441 269° West 454 522 43,000  Level FlightAware Transoceanic
Mon 10:51:00 AM 44.0914 -37.0196 269° West 454 522 43,000  Level FlightAware Transoceanic
Mon 10:52:00 AM 44.0881 -37.1952 268° West 454 522 43,000  Level FlightAware Transoceanic
Mon 10:53:00 AM 44.0846 -37.3707 268° West 454 522 43,000  Level FlightAware Transoceanic
Mon 10:54:00 AM 44.0809 -37.5462 268° West 454 522 43,000  Level FlightAware Transoceanic
Mon 10:55:00 AM 44.0769 -37.7216 268° West 454 522 43,000  Level FlightAware Transoceanic
Mon 10:56:00 AM 44.0725 -37.8971 268° West 454 522 43,000  Level FlightAware Transoceanic
Mon 10:57:00 AM 44.0680 -38.0725 268° West 454 522 43,000  Level FlightAware Transoceanic
Mon 10:58:00 AM 44.0631 -38.2479 268° West 454 522 43,000  Level FlightAware Transoceanic
Mon 10:59:00 AM 44.0580 -38.4233 268° West 454 522 43,000  Level FlightAware Transoceanic
Mon 11:00:00 AM 44.0527 -38.5986 267° West 454 522 43,000  Level FlightAware Transoceanic
Mon 11:01:00 AM 44.0470 -38.7739 267° West 454 522 43,000  Level FlightAware Transoceanic
Mon 11:02:00 AM 44.0411 -38.9492 267° West 454 522 43,000  Level FlightAware Transoceanic
Mon 11:03:00 AM 44.0349 -39.1244 267° West 454 522 43,000  Level FlightAware Transoceanic
Mon 11:04:00 AM 44.0285 -39.2996 267° West 454 522 43,000  Level FlightAware Transoceanic
Mon 11:05:00 AM 44.0218 -39.4748 267° West 454 522 43,000  Level FlightAware Transoceanic
Mon 11:06:00 AM 44.0148 -39.6499 267° West 454 522 43,000  Level FlightAware Transoceanic
Mon 11:07:00 AM 44.0075 -39.8250 267° West 454 522 43,000  Level FlightAware Transoceanic
Mon 11:08:00 AM 44.0161 -39.9671 275° West  Level Estimated
Mon 11:09:00 AM 44.0245 -40.1093 275° West  Level Estimated
Mon 11:10:00 AM 44.0327 -40.2516 275° West  Level Estimated
Mon 11:11:00 AM 44.0407 -40.3939 275° West  Level Estimated
Mon 11:12:00 AM 44.0485 -40.5362 274° West  Level Estimated
Mon 11:12:42 AM 44.0000 -40.0000 273° West 455 524 43,000  Level New York Oceanic (ODAPS)
Mon 11:13:00 AM 44.0562 -40.6786 274° West  Level Estimated
Mon 11:14:00 AM 44.0637 -40.8210 274° West  Level Estimated
Mon 11:15:00 AM 44.0710 -40.9634 274° West  Level Estimated
Mon 11:16:00 AM 44.0782 -41.1059 274° West  Level Estimated
Mon 11:17:00 AM 44.0851 -41.2484 274° West  Level Estimated
Mon 11:18:00 AM 44.0919 -41.3909 274° West  Level Estimated
Mon 11:19:00 AM 44.0680 -41.9275 272° West 455 524 43,000  Level FlightAware Transoceanic
Mon 11:20:00 AM 44.0725 -42.1029 272° West 455 524 43,000  Level FlightAware Transoceanic
Mon 11:21:00 AM 44.0769 -42.2784 272° West 455 524 43,000  Level FlightAware Transoceanic
Mon 11:22:00 AM 44.0809 -42.4538 272° West 455 524 43,000  Level FlightAware Transoceanic
Mon 11:23:00 AM 44.0846 -42.6293 272° West 455 524 43,000  Level FlightAware Transoceanic
Mon 11:24:00 AM 44.0881 -42.8048 272° West 455 524 43,000  Level FlightAware Transoceanic
Mon 11:25:00 AM 44.0914 -42.9804 271° West 455 524 43,000  Level FlightAware Transoceanic
Mon 11:26:00 AM 44.0943 -43.1559 271° West 455 524 43,000  Level FlightAware Transoceanic
Mon 11:27:00 AM 44.0970 -43.3315 271° West 455 524 43,000  Level FlightAware Transoceanic
Mon 11:28:00 AM 44.0994 -43.5071 271° West 455 524 43,000  Level FlightAware Transoceanic
Mon 11:29:00 AM 44.1016 -43.6827 271° West 455 524 43,000  Level FlightAware Transoceanic
Mon 11:30:00 AM 44.1035 -43.8583 271° West 455 524 43,000  Level FlightAware Transoceanic
Mon 11:31:00 AM 44.1051 -44.0339 271° West 455 524 43,000  Level FlightAware Transoceanic
Mon 11:32:00 AM 44.1064 -44.2096 271° West 455 524 43,000  Level FlightAware Transoceanic
Mon 11:33:00 AM 44.1075 -44.3852 270° West 455 524 43,000  Level FlightAware Transoceanic
Mon 11:34:00 AM 44.1083 -44.5609 270° West 455 524 43,000  Level FlightAware Transoceanic
Mon 11:35:00 AM 44.1089 -44.7365 270° West 455 524 43,000  Level FlightAware Transoceanic
Mon 11:36:00 AM 44.1091 -44.9122 270° West 455 524 43,000  Level FlightAware Transoceanic
Mon 11:37:00 AM 44.1091 -45.0878 270° West 455 524 43,000  Level FlightAware Transoceanic
Mon 11:38:00 AM 44.1089 -45.2635 270° West 455 524 43,000  Level FlightAware Transoceanic
Mon 11:39:00 AM 44.1083 -45.4391 270° West 455 524 43,000  Level FlightAware Transoceanic
Mon 11:40:00 AM 44.1075 -45.6148 270° West 455 524 43,000  Level FlightAware Transoceanic
Mon 11:41:00 AM 44.1064 -45.7904 269° West 455 524 43,000  Level FlightAware Transoceanic
Mon 11:42:00 AM 44.1051 -45.9661 269° West 455 524 43,000  Level FlightAware Transoceanic
Mon 11:43:00 AM 44.1035 -46.1417 269° West 455 524 43,000  Level FlightAware Transoceanic
Mon 11:44:00 AM 44.1016 -46.3173 269° West 455 524 43,000  Level FlightAware Transoceanic
Mon 11:45:00 AM 44.0994 -46.4929 269° West 455 524 43,000  Level FlightAware Transoceanic
Mon 11:46:00 AM 44.0970 -46.6685 269° West 455 524 43,000  Level FlightAware Transoceanic
Mon 11:47:00 AM 44.0943 -46.8441 269° West 455 524 43,000  Level FlightAware Transoceanic
Mon 11:48:00 AM 44.0914 -47.0196 269° West 455 524 43,000  Level FlightAware Transoceanic
Mon 11:49:00 AM 44.0881 -47.1952 268° West 455 524 43,000  Level FlightAware Transoceanic
Mon 11:50:00 AM 44.0846 -47.3707 268° West 455 524 43,000  Level FlightAware Transoceanic
Mon 11:51:00 AM 44.0809 -47.5462 268° West 455 524 43,000  Level FlightAware Transoceanic
Mon 11:52:00 AM 44.0769 -47.7216 268° West 455 524 43,000  Level FlightAware Transoceanic
Mon 11:53:00 AM 44.0725 -47.8971 268° West 455 524 43,000  Level FlightAware Transoceanic
Mon 11:54:00 AM 44.0680 -48.0725 268° West 455 524 43,000  Level FlightAware Transoceanic
Mon 11:55:00 AM 44.0631 -48.2479 268° West 455 524 43,000  Level FlightAware Transoceanic
Mon 11:56:00 AM 44.0580 -48.4233 268° West 455 524 43,000  Level FlightAware Transoceanic
Mon 11:57:00 AM 44.0527 -48.5986 267° West 455 524 43,000  Level FlightAware Transoceanic
Mon 11:58:00 AM 44.0470 -48.7739 267° West 455 524 43,000  Level FlightAware Transoceanic
Mon 11:59:00 AM 44.0411 -48.9492 267° West 455 524 43,000  Level FlightAware Transoceanic
Mon 12:00:00 PM 44.0349 -49.1244 267° West 455 524 43,000  Level FlightAware Transoceanic
Mon 12:01:00 PM 44.0285 -49.2996 267° West 455 524 43,000  Level FlightAware Transoceanic
Mon 12:02:00 PM 44.0218 -49.4748 267° West 455 524 43,000  Level FlightAware Transoceanic
Mon 12:03:00 PM 44.0148 -49.6499 267° West 455 524 43,000  Level FlightAware Transoceanic
Mon 12:04:00 PM 44.0075 -49.8250 267° West 455 524 43,000  Level FlightAware Transoceanic
Mon 12:05:00 PM 44.0000 -50.0000 274° West 455 524 43,000  Level FlightAware Transoceanic
Mon 12:06:00 PM 44.0093 -50.1757 274° West 455 524 43,000  Level FlightAware Transoceanic
Mon 12:07:00 PM 44.0184 -50.3514 274° West 455 524 43,000  Level FlightAware Transoceanic
Mon 12:08:00 PM 44.0271 -50.5272 274° West 455 524 43,000  Level FlightAware Transoceanic
Mon 12:08:02 PM 44.0000 -50.0000 274° West 458 527 43,000  Level New York Oceanic (ODAPS)
Mon 12:09:00 PM 44.0356 -50.7031 274° West 455 524 43,000  Level FlightAware Transoceanic
Mon 12:10:00 PM 44.0439 -50.8790 274° West 455 524 43,000  Level FlightAware Transoceanic
Mon 12:11:00 PM 44.0519 -51.0549 274° West 455 524 43,000  Level FlightAware Transoceanic
Mon 12:12:00 PM 44.0596 -51.2309 273° West 455 524 43,000  Level FlightAware Transoceanic
Mon 12:13:00 PM 44.0670 -51.4070 273° West 455 524 43,000  Level FlightAware Transoceanic
Mon 12:14:00 PM 44.0741 -51.5830 273° West 458 527 43,000  Level FlightAware Transoceanic
Mon 12:15:00 PM 44.0810 -51.7592 273° West 458 527 43,000  Level FlightAware Transoceanic
Mon 12:16:00 PM 44.0877 -51.9353 273° West 458 527 43,000  Level FlightAware Transoceanic
Mon 12:16:02 PM 44.0667 -51.7333 273° West 440 506 43,000  Level Moncton Center
Mon 12:17:00 PM 44.0940 -52.1115 273° West 458 527 43,000  Level FlightAware Transoceanic
Mon 12:17:02 PM 44.0833 -51.9000 278° West 460 529 43,000  Level Moncton Center
Mon 12:18:00 PM 44.1001 -52.2878 273° West 458 527 43,000  Level FlightAware Transoceanic
Mon 12:18:02 PM 44.0833 -52.0833 270° West 460 529 43,000  Level Moncton Center
Mon 12:19:00 PM 44.1059 -52.4640 273° West 458 527 43,000  Level FlightAware Transoceanic
Mon 12:19:02 PM 44.0833 -52.2667 270° West 460 529 43,000  Level Moncton Center
Mon 12:20:00 PM 44.1114 -52.6403 272° West 458 527 43,000  Level FlightAware Transoceanic
Mon 12:20:02 PM 44.0833 -52.4500 270° West 450 518 43,000  Level Moncton Center
Mon 12:21:00 PM 44.1167 -52.8167 273° West 458 527 43,000  Level FlightAware Transoceanic
Mon 12:21:02 PM 44.0833 -52.6167 270° West 450 518 43,000  Level Moncton Center
Mon 12:22:02 PM 44.0833 -52.7833 270° West 440 506 43,000  Level Moncton Center
Mon 12:23:02 PM 44.1167 -52.9667 284° West 440 506 43,000  Level Moncton Center
Mon 12:24:02 PM 44.1333 -53.1000 280° West 430 495 43,000  Level Moncton Center
Mon 12:25:02 PM 44.1500 -53.2667 278° West 400 460 43,000  Level Moncton Center
Mon 12:26:02 PM 44.1667 -53.4167 279° West 420 483 43,000  Level Moncton Center
Mon 12:27:02 PM 44.2000 -53.6000 284° West 430 495 43,000  Level Moncton Center
Mon 12:28:02 PM 44.2167 -53.7500 279° West 410 472 43,000  Level Moncton Center
Mon 12:29:02 PM 44.2333 -53.9333 277° West 430 495 43,000  Level Moncton Center
Mon 12:30:02 PM 44.2667 -54.0833 287° West 430 495 43,000  Level Moncton Center
Mon 12:31:02 PM 44.2833 -54.2500 278° West 440 506 43,000  Level Moncton Center
Mon 12:32:02 PM 44.3167 -54.4000 287° West 420 483 43,000  Level Moncton Center
Mon 12:33:02 PM 44.3333 -54.5667 278° West 450 518 43,000  Level Moncton Center
Mon 12:34:02 PM 44.3667 -54.7500 284° West 430 495 43,000  Level Moncton Center
Mon 12:35:02 PM 44.3833 -54.8833 280° West 420 483 43,000  Level Moncton Center
Mon 12:36:02 PM 44.4000 -55.0667 277° West 430 495 43,000  Level Moncton Center
Mon 12:37:02 PM 44.4167 -55.2167 279° West 420 483 43,000  Level Moncton Center
Mon 12:38:02 PM 44.4333 -55.3667 279° West 430 495 43,000  Level Moncton Center
Mon 12:39:02 PM 44.4667 -55.5500 284° West 430 495 43,000  Level Moncton Center
Mon 12:40:02 PM 44.4833 -55.7167 278° West 430 495 43,000  Level Moncton Center
Mon 12:41:02 PM 44.5167 -55.8833 286° West 420 483 43,000  Level Moncton Center
Mon 12:42:02 PM 44.5167 -56.0667 270° West 430 495 43,000  Level Moncton Center
Mon 12:43:02 PM 44.5500 -56.2000 289° West 430 495 43,000  Level Moncton Center
Mon 12:44:02 PM 44.5667 -56.3833 277° West 430 495 43,000  Level Moncton Center
Mon 12:46:02 PM 44.6000 -56.7167 278° West 430 495 43,000  Level Moncton Center
Mon 12:47:02 PM 44.6167 -56.8667 279° West 430 495 43,000  Level Moncton Center
Mon 12:48:02 PM 44.6500 -57.0333 286° West 430 495 43,000  Level Moncton Center
Mon 12:49:02 PM 44.6500 -57.2167 270° West 430 495 43,000  Level Moncton Center
Mon 12:50:02 PM 44.6833 -57.3833 286° West 430 495 43,000  Level Moncton Center
Mon 12:51:02 PM 44.7000 -57.5500 278° West 430 495 43,000  Level Moncton Center
Mon 12:52:02 PM 44.7167 -57.7167 278° West 430 495 43,000  Level Moncton Center
Mon 12:53:02 PM 44.7333 -57.8667 279° West 430 495 43,000  Level Moncton Center
Mon 12:54:02 PM 44.7333 -58.0333 270° West 440 506 43,000  Level Moncton Center
Mon 12:55:02 PM 44.7667 -58.2000 286° West 440 506 43,000  Level Moncton Center
Mon 12:56:02 PM 44.7833 -58.3833 277° West 430 495 43,000  Level Moncton Center
Mon 12:57:02 PM 44.8000 -58.5500 278° West 430 495 43,000  Level Moncton Center
Mon 12:58:02 PM 44.8167 -58.7333 277° West 430 495 43,000  Level Moncton Center
Mon 12:59:02 PM 44.8333 -58.8833 279° West 430 495 43,000  Level Moncton Center
Mon 01:00:02 PM 44.8500 -59.0667 277° West 430 495 43,000  Level Moncton Center
Mon 01:01:02 PM 44.8667 -59.2333 278° West 430 495 43,000  Level Moncton Center
Mon 01:02:02 PM 44.8833 -59.4000 278° West 430 495 43,000  Level Moncton Center
Mon 01:03:02 PM 44.8833 -59.5500 270° West 430 495 43,000  Level Moncton Center
Mon 01:04:02 PM 44.9000 -59.7167 278° West 430 495 43,000  Level Moncton Center
Mon 01:05:02 PM 44.9167 -59.9167 277° West 440 506 43,000  Level Moncton Center
Mon 01:06:02 PM 44.9333 -60.0667 279° West 440 506 43,000  Level Moncton Center
Mon 01:07:02 PM 44.9500 -60.2333 278° West 440 506 43,000  Level Moncton Center
Mon 01:08:02 PM 44.9667 -60.4000 278° West 440 506 43,000  Level Moncton Center
Mon 01:09:02 PM 44.9667 -60.5833 270° West 440 506 43,000  Level Moncton Center
Mon 01:10:02 PM 45.0000 -60.7500 286° West 430 495 43,000  Level Moncton Center
Mon 01:11:02 PM 45.0000 -60.9167 270° West 430 495 43,000  Level Moncton Center
Mon 01:12:02 PM 45.0167 -61.0833 278° West 430 495 43,000  Level Moncton Center
Mon 01:13:02 PM 45.0333 -61.2667 277° West 440 506 43,000  Level Moncton Center
Mon 01:14:02 PM 45.0333 -61.4333 270° West 440 506 43,000  Level Moncton Center
Mon 01:15:02 PM 45.0000 -61.6000 254° West 440 506 43,000  Level Moncton Center
Mon 01:16:02 PM 45.0000 -61.7667 270° West 440 506 43,000  Level Moncton Center
Mon 01:17:02 PM 44.9667 -61.9333 254° West 430 495 43,000  Level Moncton Center
Mon 01:18:02 PM 44.9500 -62.1000 262° West 430 495 43,000  Level Moncton Center
Mon 01:19:02 PM 44.9167 -62.2667 254° West 430 495 43,000  Level Moncton Center
Mon 01:20:02 PM 44.9000 -62.4333 262° West 430 495 43,000  Level Moncton Center
Mon 01:21:02 PM 44.8667 -62.6000 254° West 440 506 43,000  Level Moncton Center
Mon 01:22:02 PM 44.8667 -62.7667 270° West 430 495 43,000  Level Moncton Center
Mon 01:23:02 PM 44.8333 -62.9667 257° West 430 495 43,000  Level Moncton Center
Mon 01:24:02 PM 44.8167 -63.1000 260° West 430 495 43,000  Level Moncton Center
Mon 01:25:02 PM 44.7833 -63.2667 254° West 440 506 43,000  Level Moncton Center
Mon 01:26:02 PM 44.7500 -63.4500 256° West 450 518 43,000  Level Moncton Center
Mon 01:27:02 PM 44.7333 -63.6167 262° West 440 506 43,000  Level Moncton Center
Mon 01:28:02 PM 44.7000 -63.7833 254° West 430 495 43,000  Level Moncton Center
Mon 01:29:02 PM 44.6833 -63.9500 262° West 430 495 43,000  Level Moncton Center
Mon 01:30:02 PM 44.6500 -64.1167 254° West 430 495 43,000  Level Moncton Center
Mon 01:31:02 PM 44.6333 -64.2833 262° West 430 495 43,000  Level Moncton Center
Mon 01:32:02 PM 44.6000 -64.4500 254° West 430 495 43,000  Level Moncton Center
Mon 01:33:02 PM 44.5833 -64.6167 262° West 430 495 43,000  Level Moncton Center
Mon 01:34:02 PM 44.5500 -64.7667 253° West 440 506 43,000  Level Moncton Center
Mon 01:35:02 PM 44.5333 -64.9667 263° West 440 506 43,000  Level Moncton Center
Mon 01:36:02 PM 44.5000 -65.1000 251° West 440 506 43,000  Level Moncton Center
Mon 01:37:02 PM 44.4833 -65.2667 262° West 440 506 43,000  Level Moncton Center
Mon 01:38:02 PM 44.4500 -65.4500 256° West 440 506 43,000  Level Moncton Center
Mon 01:39:02 PM 44.4333 -65.6167 262° West 440 506 43,000  Level Moncton Center
Mon 01:40:02 PM 44.4000 -65.7833 254° West 440 506 43,000  Level Moncton Center
Mon 01:41:02 PM 44.3833 -65.9333 261° West 440 506 43,000  Level Moncton Center
Mon 01:42:02 PM 44.3333 -66.1333 251° West 440 506 43,000  Level Moncton Center
Mon 01:43:02 PM 44.3000 -66.2833 253° West 450 518 43,000  Level Moncton Center
Mon 01:44:02 PM 44.2833 -66.4500 262° West 450 518 43,000  Level Moncton Center
Mon 01:45:02 PM 44.2500 -66.6167 254° West 450 518 43,000  Level Moncton Center
Mon 01:46:02 PM 44.2333 -66.7833 262° West 450 518 43,000  Level Moncton Center
Mon 01:47:02 PM 44.1833 -66.9667 249° West 440 506 43,000  Level Moncton Center
Mon 01:48:02 PM 44.1667 -67.1167 261° West 440 506 43,000  Level Moncton Center
Mon 01:49:02 PM 44.1333 -67.3167 257° West 450 518 43,000  Level Moncton Center
Mon 01:50:02 PM 44.1000 -67.4667 253° West 450 518 43,000  Level Moncton Center
Mon 01:51:02 PM 44.0667 -67.6500 256° West 460 529 43,000  Level Moncton Center
Mon 01:52:02 PM 44.0333 -67.8167 255° West 460 529 43,000  Level Moncton Center
Mon 01:53:02 PM 44.0167 -68.0000 263° West 460 529 43,000  Level Moncton Center
Mon 01:54:02 PM 43.9667 -68.1667 247° West 460 529 43,000  Level Moncton Center
Mon 01:55:02 PM 43.9333 -68.3167 253° West 460 529 43,000  Level Moncton Center
Mon 01:56:02 PM 43.9167 -68.5000 263° West 450 518 43,000  Level Moncton Center
Mon 01:57:02 PM 43.8667 -68.6667 247° West 450 518 43,000  Level Moncton Center
Mon 01:58:02 PM 43.8333 -68.8167 253° West 450 518 43,000  Level Moncton Center
Mon 01:59:02 PM 43.8000 -69.0000 256° West 450 518 43,000  Level Moncton Center
Mon 02:00:02 PM 43.7667 -69.1667 255° West 450 518 43,000  Level Moncton Center
Mon 02:01:02 PM 43.7500 -69.3333 262° West 450 518 43,000  Level Moncton Center
Mon 02:02:02 PM 43.7167 -69.4833 253° West 450 518 43,000  Level Moncton Center
Mon 02:03:02 PM 43.6833 -69.6667 256° West 450 518 43,000  Level Moncton Center
Mon 02:04:02 PM 43.6333 -69.8500 249° West 460 529 43,000  Level Moncton Center
Mon 02:05:02 PM 43.6167 -70.0000 261° West 440 506 43,000  Level Moncton Center
Mon 02:06:02 PM 43.5667 -70.1667 248° West 450 518 43,000  Level Moncton Center
Mon 02:07:02 PM 43.5333 -70.3500 256° West 450 518 43,000  Level Moncton Center
Mon 02:08:02 PM 43.5000 -70.4833 251° West 460 529 43,000  Level Moncton Center
Mon 02:09:02 PM 43.4500 -70.6667 249° West 450 518 43,000  Level Moncton Center
Mon 02:10:02 PM 43.4333 -70.8167 261° West 460 529 43,000  Level Moncton Center
Mon 02:11:02 PM 43.3833 -71.0000 249° West 480 552 43,000  Level Moncton Center
Mon 02:12:02 PM 43.3667 -71.1500 261° West 450 518 43,000  Level Moncton Center
Mon 02:13:19 PM 43.3250 -71.3756 256° West 467 537 43,000  Level Boston Center
Mon 02:14:19 PM 43.2950 -71.5158 254° West 467 537 43,000  Level Boston Center
Mon 02:15:19 PM 43.2483 -71.6989 251° West 467 537 43,000 -350 Level Boston Center
Mon 02:16:19 PM 43.2097 -71.8733 253° West 472 543 42,300 -1,300 Descending Boston Center
Mon 02:17:19 PM 43.1708 -72.0444 253° West 472 543 40,400 -2,150 Descending Boston Center
Mon 02:18:19 PM 43.1336 -72.2011 252° West 461 531 38,000 -2,300 Descending Boston Center
Mon 02:19:19 PM 43.0944 -72.3803 253° West 451 519 35,800 -2,300 Descending Boston Center
Mon 02:20:19 PM 43.0569 -72.5425 252° West 451 519 33,400 -2,550 Descending Boston Center
Mon 02:21:19 PM 43.0128 -72.7097 250° West 459 528 30,700 -2,700 Descending Boston Center
Mon 02:22:19 PM 42.9728 -72.8742 252° West 467 537 28,000 -2,450 Descending Boston Center
Mon 02:23:19 PM 42.9428 -73.0244 255° West 467 537 25,800 -2,000 Descending Boston Center
Mon 02:24:19 PM 42.9022 -73.1828 251° West 461 531 24,000 -1,550 Descending Boston Center
Mon 02:25:19 PM 42.8658 -73.3381 252° West 455 524 22,700 -1,800 Descending Boston Center
Mon 02:26:19 PM 42.8269 -73.4903 251° West 442 509 20,400 -2,400 Descending Boston Center
Mon 02:27:19 PM 42.7881 -73.6369 250° West 397 457 17,900 -2,100 Descending Boston Center
Mon 02:28:19 PM 42.7492 -73.7633 247° West 389 448 16,200 -950 Descending Boston Center
Mon 02:29:19 PM 42.6603 -73.8658 220° Southwest 381 438 16,000 -100 Descending Boston Center
Mon 02:30:19 PM 42.5678 -73.9200 203° Southwest 372 428 16,000  Level Boston Center
Mon 02:31:19 PM 42.4897 -73.9942 215° Southwest 381 438 16,000  Level Boston Center
Mon 02:32:19 PM 42.3906 -74.0761 211° Southwest 381 438 16,000  Level Boston Center
Mon 02:33:19 PM 42.3106 -74.1386 210° Southwest 381 438 16,000  Level Boston Center
Mon 02:34:19 PM 42.2197 -74.2258 215° Southwest 376 433 16,000  Level Boston Center
Mon 02:35:19 PM 42.1353 -74.2878 209° Southwest 381 438 16,000 -450 Level Boston Center
Mon 02:36:19 PM 42.0283 -74.3322 197° South 381 438 15,100 -1,250 Descending Boston Center
Mon 02:37:19 PM 41.9400 -74.3686 197° South 376 433 13,500 -1,650 Descending Boston Center
Mon 02:38:19 PM 41.8533 -74.4442 213° Southwest 351 404 11,800 -1,550 Descending Boston Center
Mon 02:39:19 PM 41.7733 -74.4833 200° South 346 398 10,400 -1,500 Descending Boston Center
Mon 02:40:19 PM 41.6872 -74.5194 197° South 321 369 8,800 -1,350 Descending Boston Center
Mon 02:41:19 PM 41.6242 -74.5425 195° South 284 327 7,700 -1,300 Descending Boston Center
Mon 02:42:19 PM 41.5428 -74.5619 190° South 271 312 6,200 -551 Descending Boston Center
Mon 02:44:24 PM 41.3833 -74.5833 186° South 276 318 6,000 -134 Descending New York TRACON
Mon 02:45:18 PM 41.3167 -74.5667 169° South 269 310 5,800 -1,000 Descending New York TRACON
Mon 02:46:24 PM 41.2500 -74.5500 169° South 244 281 4,000 -857 Descending New York TRACON
Mon 02:47:24 PM 41.2000 -74.5000 143° Southeast 243 280 4,000 -421 Level New York TRACON
Mon 02:48:18 PM 41.1667 -74.4333 124° Southeast 248 285 3,200 -526 Descending New York TRACON
Mon 02:49:18 PM 41.1333 -74.3500 118° Southeast 236 272 3,000 -50 Descending New York TRACON
Mon 02:50:18 PM 41.1167 -74.2667 105° East 243 280 3,100 50 Climbing New York TRACON
Mon 02:51:18 PM 41.0833 -74.1833 118° Southeast 244 281 3,100 -550 Level New York TRACON
Mon 02:52:18 PM 41.0500 -74.1167 124° Southeast 235 270 2,000 -550 Descending New York TRACON
Mon 02:53:18 PM 41.0000 -74.0667 143° Southeast 207 238 2,000 -50 Level New York TRACON
Mon 02:54:18 PM 40.9500 -74.0500 166° South 180 207 1,900 -421 Descending New York TRACON
Mon 02:55:12 PM 40.9167 -74.0500 180° South 135 155 1,200 -700 Descending New York TRACON
Mon 02:56:18 PM 40.8667 -74.0500 180° South 132 152 500 -636 Descending New York TRACON

Login

Don't have an account? Register now (free) for customized features, flight alerts, and more!